createdAt,value
2019-02-18T00:01:49.979Z,101348.58
2019-02-18T00:04:18.420Z,101352.08
2019-02-18T00:06:46.885Z,101350.33
2019-02-18T00:09:15.377Z,101349.48
2019-02-18T00:11:43.894Z,101354.67
2019-02-18T00:14:12.323Z,101351.63
2019-02-18T00:16:40.777Z,101352.05
2019-02-18T00:19:09.303Z,101349.02
2019-02-18T00:21:37.781Z,101351.61
2019-02-18T00:24:06.208Z,101355.53
2019-02-18T00:26:34.655Z,101351.16
2019-02-18T00:29:03.055Z,101348.11
2019-02-18T00:31:31.505Z,101351.60
2019-02-18T00:33:59.933Z,101342.44
2019-02-18T00:36:28.408Z,101352.01
2019-02-18T00:38:56.887Z,101352.45
2019-02-18T00:41:25.448Z,101354.17
2019-02-18T00:43:53.860Z,101350.70
2019-02-18T00:46:22.321Z,101347.65
2019-02-18T00:48:50.739Z,101356.76
2019-02-18T00:51:19.170Z,101354.17
2019-02-18T00:53:47.596Z,101354.59
2019-02-18T00:56:16.055Z,101347.18
2019-02-18T00:58:44.534Z,101351.53
2019-02-18T01:01:12.997Z,101351.98
2019-02-18T01:03:41.448Z,101355.89
2019-02-18T01:06:10.055Z,101360.20
2019-02-18T01:08:38.683Z,101356.30
2019-02-18T01:11:07.193Z,101356.27
2019-02-18T01:13:35.783Z,101349.33
2019-02-18T01:16:04.274Z,101352.79
2019-02-18T01:18:32.731Z,101355.81
2019-02-18T01:21:01.141Z,101357.55
2019-02-18T01:23:29.590Z,101353.61
2019-02-18T01:25:58.021Z,101352.33
2019-02-18T01:28:26.470Z,101349.27
2019-02-18T01:30:54.895Z,101345.77
2019-02-18T01:33:23.543Z,101354.00
2019-02-18T01:35:51.962Z,101362.66
2019-02-18T01:38:20.403Z,101355.31
2019-02-18T01:40:48.831Z,101354.84
2019-02-18T01:43:17.292Z,101352.70
2019-02-18T01:45:45.704Z,101354.41
2019-02-18T01:48:14.123Z,101350.06
2019-02-18T01:50:42.655Z,101356.14
2019-02-18T01:53:11.169Z,101357.89
2019-02-18T01:55:39.599Z,101352.69
2019-02-18T01:58:08.029Z,101353.11
2019-02-18T02:00:36.745Z,101349.63
2019-02-18T02:03:05.371Z,101345.26
2019-02-18T02:05:33.820Z,101340.48
2019-02-18T02:08:02.232Z,101337.44
2019-02-18T02:10:30.669Z,101336.54
2019-02-18T02:13:25.114Z,101334.37
2019-02-18T02:15:53.707Z,101339.55
2019-02-18T02:18:22.126Z,101335.23
2019-02-18T02:20:50.623Z,101337.38
2019-02-18T02:23:19.027Z,101336.94
2019-02-18T02:25:47.557Z,101340.39
2019-02-18T02:28:15.969Z,101338.65
2019-02-18T02:30:44.477Z,101332.11
2019-02-18T02:33:12.887Z,101332.13
2019-02-18T02:35:41.335Z,101328.20
2019-02-18T02:38:09.768Z,101329.94
2019-02-18T02:40:38.336Z,101323.86
2019-02-18T02:43:06.826Z,101321.23
2019-02-18T02:45:35.261Z,101324.27
2019-02-18T02:48:03.762Z,101326.45
2019-02-18T02:50:32.223Z,101322.95
2019-02-18T02:53:00.622Z,101315.95
2019-02-18T02:55:29.070Z,101318.56
2019-02-18T02:57:57.527Z,101317.69
2019-02-18T03:00:25.946Z,101314.20
2019-02-18T03:02:54.427Z,101315.47
2019-02-18T03:05:22.912Z,101312.88
2019-02-18T03:07:51.371Z,101307.66
2019-02-18T03:10:19.803Z,101310.70
2019-02-18T03:12:48.251Z,101305.03
2019-02-18T03:15:16.671Z,101304.61
2019-02-18T03:17:45.202Z,101304.59
2019-02-18T03:20:13.966Z,101309.36
2019-02-18T03:22:42.410Z,101299.81
2019-02-18T03:25:21.531Z,101302.39
2019-02-18T03:27:55.545Z,101297.64
2019-02-18T03:30:38.850Z,101301.08
2019-02-18T03:33:09.938Z,101301.53
2019-02-18T03:35:38.342Z,101298.45
2019-02-18T03:38:06.789Z,101300.63
2019-02-18T03:40:35.732Z,101294.11
2019-02-18T03:43:04.226Z,101287.58
2019-02-18T03:45:32.642Z,101294.97
2019-02-18T03:48:01.096Z,101294.95
2019-02-18T03:50:29.523Z,101294.95
2019-02-18T03:52:57.985Z,101298.85
2019-02-18T03:55:26.565Z,101288.83
2019-02-18T03:57:55.187Z,101292.30
2019-02-18T04:00:23.670Z,101294.89
2019-02-18T04:02:52.119Z,101295.31
2019-02-18T04:05:20.615Z,101299.19
2019-02-18T04:07:49.090Z,101295.27
2019-02-18T04:10:17.545Z,101297.43
2019-02-18T04:12:46.031Z,101290.50
2019-02-18T04:15:17.850Z,101287.02
2019-02-18T04:17:47.019Z,101294.83
2019-02-18T04:20:15.483Z,101292.17
2019-02-18T04:22:43.905Z,101294.34
2019-02-18T04:25:12.358Z,101289.95
2019-02-18T04:27:40.763Z,101289.11
2019-02-18T04:30:13.601Z,101292.13
2019-02-18T04:32:41.284Z,101289.50
2019-02-18T04:35:09.810Z,101289.92
2019-02-18T04:37:38.261Z,101287.31
2019-02-18T04:40:08.408Z,101286.89
2019-02-18T04:42:36.833Z,101288.19
2019-02-18T04:45:10.227Z,101295.97
2019-02-18T04:47:38.649Z,101293.78
2019-02-18T04:50:08.323Z,101291.63
2019-02-18T04:52:36.736Z,101296.39
2019-02-18T04:55:08.403Z,101300.70
2019-02-18T04:57:36.825Z,101293.79
2019-02-18T05:00:08.519Z,101298.11
2019-02-18T05:02:37.073Z,101295.52
2019-02-18T05:05:08.076Z,101294.19
2019-02-18T05:07:36.509Z,101296.33
2019-02-18T05:10:07.995Z,101298.94
2019-02-18T05:12:36.441Z,101290.66
2019-02-18T05:15:06.711Z,101299.74
2019-02-18T05:17:35.162Z,101297.15
2019-02-18T05:20:05.028Z,101294.52
2019-02-18T05:22:33.460Z,101294.92
2019-02-18T05:25:01.945Z,101296.67
2019-02-18T05:27:33.364Z,101294.92
2019-02-18T05:30:00.683Z,101294.48
2019-02-18T05:32:29.138Z,101293.58
2019-02-18T05:34:57.554Z,101290.97
2019-02-18T05:37:26.007Z,101285.78
2019-02-18T05:39:55.460Z,101276.68
2019-02-18T05:42:24.081Z,101278.41
2019-02-18T05:44:52.497Z,101283.16
2019-02-18T05:47:20.943Z,101279.66
2019-02-18T05:49:49.356Z,101282.67
2019-02-18T05:52:17.807Z,101280.02
2019-02-18T05:54:46.214Z,101278.73
2019-02-18T05:57:14.659Z,101285.20
2019-02-18T05:59:43.094Z,101282.55
2019-02-18T06:02:11.544Z,101277.78
2019-02-18T06:04:40.034Z,101277.31
2019-02-18T06:07:08.563Z,101278.20
2019-02-18T06:09:36.967Z,101280.77
2019-02-18T06:12:05.574Z,101281.22
2019-02-18T06:14:34.007Z,101277.73
2019-02-18T06:17:02.913Z,101274.28
2019-02-18T06:19:31.371Z,101277.27
2019-02-18T06:21:59.973Z,101269.03
2019-02-18T06:24:28.488Z,101264.69
2019-02-18T06:26:56.992Z,101263.78
2019-02-18T06:29:25.450Z,101260.73
2019-02-18T06:31:53.892Z,101260.30
2019-02-18T06:34:22.412Z,101260.28
2019-02-18T06:36:50.833Z,101258.52
2019-02-18T06:39:19.347Z,101261.11
2019-02-18T06:41:47.766Z,101259.34
2019-02-18T06:44:17.866Z,101261.47
2019-02-18T06:46:47.930Z,101252.33
2019-02-18T06:49:16.445Z,101257.97
2019-02-18T06:51:45.040Z,101257.97
2019-02-18T06:54:13.564Z,101260.13
2019-02-18T06:56:55.412Z,101263.17
2019-02-18T06:59:31.137Z,101261.42
2019-02-18T07:02:01.378Z,101264.88
2019-02-18T07:04:43.124Z,101260.13
2019-02-18T07:07:15.887Z,101265.33
2019-02-18T07:09:51.199Z,101264.91
2019-02-18T07:12:20.778Z,101268.80
2019-02-18T07:14:49.277Z,101273.56
2019-02-18T07:17:17.713Z,101275.72
2019-02-18T07:19:46.182Z,101273.97
2019-02-18T07:22:14.670Z,101275.27
2019-02-18T07:24:43.122Z,101284.36
2019-02-18T07:27:11.579Z,101284.39
2019-02-18T07:29:40.004Z,101279.20
2019-02-18T07:32:08.464Z,101269.72
2019-02-18T07:34:36.901Z,101271.45
2019-02-18T07:37:05.519Z,101267.11
2019-02-18T07:39:34.008Z,101271.48
2019-02-18T07:42:02.478Z,101271.51
2019-02-18T07:44:30.925Z,101265.45
2019-02-18T07:46:59.417Z,101265.01
2019-02-18T07:49:27.836Z,101268.91
2019-02-18T07:51:56.523Z,101269.79
2019-02-18T07:54:25.030Z,101259.81
2019-02-18T07:56:53.550Z,101261.97
2019-02-18T07:59:22.100Z,101271.11
2019-02-18T08:01:50.554Z,101267.67
2019-02-18T08:04:18.991Z,101265.55
2019-02-18T08:06:47.430Z,101262.53
2019-02-18T08:09:15.932Z,101271.65
2019-02-18T08:11:44.467Z,101273.83
2019-02-18T08:14:13.050Z,101273.44
2019-02-18T08:16:42.393Z,101279.55
2019-02-18T08:19:10.816Z,101272.19
2019-02-18T08:21:39.413Z,101276.11
2019-02-18T08:24:08.008Z,101274.84
2019-02-18T08:26:36.515Z,101267.91
2019-02-18T08:29:05.028Z,101273.59
2019-02-18T08:31:33.607Z,101271.45
2019-02-18T08:34:02.084Z,101272.77
2019-02-18T08:36:30.511Z,101273.23
2019-02-18T08:38:59.043Z,101276.72
2019-02-18T08:41:27.442Z,101272.39
2019-02-18T08:43:55.979Z,101259.39
2019-02-18T08:46:24.523Z,101262.90
2019-02-18T08:48:52.941Z,101259.90
2019-02-18T08:51:21.373Z,101256.02
2019-02-18T08:53:49.833Z,101262.98
2019-02-18T08:56:18.267Z,101261.31
2019-02-18T08:58:46.723Z,101254.40
2019-02-18T09:01:15.229Z,101258.34
2019-02-18T09:03:43.683Z,101254.91
2019-02-18T09:06:12.161Z,101258.88
2019-02-18T09:08:40.625Z,101251.09
2019-02-18T09:11:09.046Z,101246.77
2019-02-18T09:13:37.576Z,101244.21
2019-02-18T09:16:06.066Z,101240.78
2019-02-18T09:18:34.524Z,101239.53
2019-02-18T09:21:02.937Z,101238.70
2019-02-18T09:23:33.036Z,101238.36
2019-02-18T09:26:01.622Z,101236.66
2019-02-18T09:28:30.254Z,101241.03
2019-02-18T09:30:58.800Z,101231.09
2019-02-18T09:33:27.242Z,101231.98
2019-02-18T09:35:55.713Z,101237.63
2019-02-18T09:38:25.496Z,101237.21
2019-02-18T09:40:54.123Z,101234.19
2019-02-18T09:43:22.671Z,101235.50
2019-02-18T09:45:51.308Z,101233.77
2019-02-18T09:48:19.747Z,101239.00
2019-02-18T09:50:48.211Z,101231.61
2019-02-18T09:53:16.634Z,101230.71
2019-02-18T09:55:45.077Z,101229.81
2019-02-18T09:58:13.513Z,101225.45
2019-02-18T10:00:42.052Z,101222.38
2019-02-18T10:03:10.642Z,101214.52
2019-02-18T10:05:39.089Z,101220.19
2019-02-18T10:08:07.511Z,101212.64
2019-02-18T10:10:36.295Z,101212.64
2019-02-18T10:13:04.893Z,101211.30
2019-02-18T10:15:33.344Z,101216.47
2019-02-18T10:18:01.787Z,101215.48
2019-02-18T10:20:30.336Z,101206.13
2019-02-18T10:22:58.857Z,101206.13
2019-02-18T10:25:27.316Z,101205.47
2019-02-18T10:27:55.845Z,101195.34
2019-02-18T10:30:24.326Z,101195.34
2019-02-18T10:32:52.741Z,101195.65
2019-02-18T10:35:21.182Z,101191.63
2019-02-18T10:37:55.012Z,101193.70
2019-02-18T10:40:19.851Z,101194.45
2019-02-18T10:42:48.291Z,101189.92
2019-02-18T10:45:16.890Z,101186.30
2019-02-18T10:47:45.360Z,101191.75
2019-02-18T10:50:13.924Z,101188.52
2019-02-18T10:52:42.385Z,101187.48
2019-02-18T10:55:11.668Z,101180.23
2019-02-18T10:57:40.462Z,101176.95
2019-02-18T11:00:16.523Z,101175.81
2019-02-18T11:02:45.511Z,101175.12
2019-02-18T11:05:14.095Z,101172.22
2019-02-18T11:07:42.671Z,101173.66
2019-02-18T11:10:13.538Z,101175.09
2019-02-18T11:12:42.040Z,101167.84
2019-02-18T11:15:14.808Z,101168.03
2019-02-18T11:17:43.578Z,101169.91
2019-02-18T11:20:12.976Z,101165.98
2019-02-18T11:22:41.536Z,101163.89
2019-02-18T11:25:11.540Z,101163.13
2019-02-18T11:27:40.104Z,101161.51
2019-02-18T11:30:16.694Z,101154.75
2019-02-18T11:32:45.116Z,101146.77
2019-02-18T11:35:13.923Z,101135.39
2019-02-18T11:37:42.361Z,101137.70
2019-02-18T11:40:15.658Z,101126.33
2019-02-18T11:42:44.171Z,101127.06
2019-02-18T11:45:14.362Z,101120.84
2019-02-18T11:47:42.839Z,101116.89
2019-02-18T11:50:13.766Z,101109.74
2019-02-18T11:52:42.188Z,101108.80
2019-02-18T11:55:12.616Z,101100.35
2019-02-18T11:57:41.430Z,101091.63
2019-02-18T12:00:17.304Z,101093.11
2019-02-18T12:02:46.298Z,101087.05
2019-02-18T12:05:14.731Z,101084.19
2019-02-18T12:07:43.278Z,101077.80
2019-02-18T12:10:12.978Z,101066.46
2019-02-18T12:12:41.822Z,101069.30
2019-02-18T12:15:12.993Z,101064.55
2019-02-18T12:17:41.432Z,101054.61
2019-02-18T12:20:12.739Z,101050.74
2019-02-18T12:22:41.242Z,101045.06
2019-02-18T12:25:10.650Z,101048.09
2019-02-18T12:27:39.557Z,101041.36
2019-02-18T12:30:18.730Z,101033.36
2019-02-18T12:32:47.227Z,101031.72
2019-02-18T12:35:15.654Z,101023.63
2019-02-18T12:37:54.653Z,101024.52
2019-02-18T12:40:14.658Z,101019.79
2019-02-18T12:42:43.159Z,101020.26
2019-02-18T12:45:14.428Z,101007.27
2019-02-18T12:47:43.192Z,101009.73
2019-02-18T12:50:12.483Z,100993.92
2019-02-18T12:52:41.016Z,100998.45
2019-02-18T12:55:13.009Z,100992.08
2019-02-18T12:57:41.549Z,100985.44
2019-02-18T13:00:15.040Z,100988.81
2019-02-18T13:02:45.043Z,100979.87
2019-02-18T13:05:13.994Z,100974.95
2019-02-18T13:07:42.588Z,100966.63
2019-02-18T13:10:12.018Z,100965.78
2019-02-18T13:12:40.938Z,100955.16
2019-02-18T13:15:12.274Z,100951.43
2019-02-18T13:17:42.705Z,100943.19
2019-02-18T13:20:11.114Z,100936.02
2019-02-18T13:22:40.030Z,100927.63
2019-02-18T13:25:09.615Z,100929.55
2019-02-18T13:27:38.047Z,100919.58
2019-02-18T13:30:15.477Z,100920.30
2019-02-18T13:32:44.018Z,100914.33
2019-02-18T13:35:12.687Z,100916.15
2019-02-18T13:37:41.128Z,100913.62
2019-02-18T13:40:10.185Z,100907.95
2019-02-18T13:42:38.766Z,100900.19
2019-02-18T13:45:08.445Z,100901.91
2019-02-18T13:47:36.908Z,100906.08
2019-02-18T13:50:13.330Z,100903.42
2019-02-18T13:52:41.759Z,100900.58
2019-02-18T13:55:11.868Z,100892.92
2019-02-18T13:57:40.830Z,100885.30
2019-02-18T14:00:18.495Z,100889.37
2019-02-18T14:02:47.168Z,100887.34
2019-02-18T14:05:15.975Z,100882.20
2019-02-18T14:07:44.532Z,100889.76
2019-02-18T14:10:13.558Z,100881.37
2019-02-18T14:12:42.116Z,100882.34
2019-02-18T14:15:12.679Z,100879.06
2019-02-18T14:17:41.240Z,100878.19
2019-02-18T14:20:14.291Z,100877.51
2019-02-18T14:22:42.855Z,100872.89
2019-02-18T14:25:11.930Z,100871.61
2019-02-18T14:27:40.485Z,100867.70
2019-02-18T14:30:12.003Z,100868.39
2019-02-18T14:32:40.520Z,100866.73
2019-02-18T14:35:09.498Z,100867.80
2019-02-18T14:37:37.914Z,100864.91
2019-02-18T14:40:08.067Z,100861.25
2019-02-18T14:42:36.581Z,100868.30
2019-02-18T14:45:05.752Z,100863.14
2019-02-18T14:47:34.272Z,100867.23
2019-02-18T14:50:02.771Z,100863.69
2019-02-18T14:52:31.432Z,100866.11
2019-02-18T14:54:59.944Z,100870.27
2019-02-18T14:57:28.738Z,100866.95
2019-02-18T14:59:57.292Z,100868.59
2019-02-18T15:02:25.758Z,100870.33
2019-02-18T15:04:54.332Z,100866.09
2019-02-18T15:07:23.089Z,100862.29
2019-02-18T15:09:51.653Z,100866.47
2019-02-18T15:12:20.811Z,100866.44
2019-02-18T15:14:49.310Z,100870.75
2019-02-18T15:17:17.820Z,100868.18
2019-02-18T15:19:46.265Z,100866.48
2019-02-18T15:22:14.801Z,100856.63
2019-02-18T15:24:43.240Z,100856.70
2019-02-18T15:27:12.085Z,100853.27
2019-02-18T15:29:40.527Z,100850.03
2019-02-18T15:32:09.047Z,100849.06
2019-02-18T15:34:37.494Z,100854.61
2019-02-18T15:37:06.085Z,100850.73
2019-02-18T15:39:34.522Z,100851.56
2019-02-18T15:42:03.104Z,100849.80
2019-02-18T15:44:31.639Z,100855.76
2019-02-18T15:47:00.164Z,100847.69
2019-02-18T15:49:28.791Z,100851.00
2019-02-18T15:51:57.458Z,100849.13
2019-02-18T15:54:26.016Z,100845.09
2019-02-18T15:56:54.530Z,100847.19
2019-02-18T15:59:23.279Z,100839.97
2019-02-18T16:01:51.716Z,100848.08
2019-02-18T16:04:20.244Z,100843.11
2019-02-18T16:06:48.757Z,100846.07
2019-02-18T16:09:17.217Z,100840.34
2019-02-18T16:11:45.826Z,100838.06
2019-02-18T16:14:14.642Z,100841.89
2019-02-18T16:16:43.113Z,100841.80
2019-02-18T16:19:12.035Z,100842.55
2019-02-18T16:21:40.471Z,100844.56
2019-02-18T16:24:19.344Z,100841.25
2019-02-18T16:26:39.161Z,100837.98
2019-02-18T16:29:07.619Z,100828.55
2019-02-18T16:31:36.146Z,100834.53
2019-02-18T16:34:04.944Z,100833.89
2019-02-18T16:36:33.490Z,100840.30
2019-02-18T16:39:02.329Z,100838.83
2019-02-18T16:41:30.859Z,100836.87
2019-02-18T16:43:59.318Z,100835.43
2019-02-18T16:46:28.030Z,100837.31
2019-02-18T16:48:56.809Z,100833.55
2019-02-18T16:51:25.265Z,100835.55
2019-02-18T16:53:53.692Z,100835.27
2019-02-18T16:56:22.156Z,100838.58
2019-02-18T16:58:50.576Z,100834.85
2019-02-18T17:01:19.516Z,100835.92
2019-02-18T17:03:48.075Z,100841.09
2019-02-18T17:06:16.540Z,100839.17
2019-02-18T17:08:44.929Z,100837.23
2019-02-18T17:11:13.425Z,100838.37
2019-02-18T17:13:41.853Z,100839.06
2019-02-18T17:16:10.375Z,100847.22
2019-02-18T17:18:38.799Z,100858.41
2019-02-18T17:21:07.268Z,100863.97
2019-02-18T17:23:35.720Z,100872.22
2019-02-18T17:26:04.161Z,100873.47
2019-02-18T17:28:32.723Z,100873.66
2019-02-18T17:31:01.254Z,100872.95
2019-02-18T17:33:30.150Z,100874.47
2019-02-18T17:35:58.560Z,100878.61
2019-02-18T17:38:27.055Z,100873.57
2019-02-18T17:40:55.953Z,100882.09
2019-02-18T17:43:24.395Z,100883.94
2019-02-18T17:45:52.976Z,100881.44
2019-02-18T17:48:21.444Z,100881.59
2019-02-18T17:50:49.895Z,100878.27
2019-02-18T17:53:18.342Z,100885.44
2019-02-18T17:55:46.767Z,100885.19
2019-02-18T17:58:15.207Z,100884.45
2019-02-18T18:00:45.397Z,100882.38
2019-02-18T18:03:14.031Z,100887.35
2019-02-18T18:05:44.619Z,100889.69
2019-02-18T18:08:12.997Z,100886.27
2019-02-18T18:10:41.426Z,100889.92
2019-02-18T18:13:09.960Z,100888.31
2019-02-18T18:15:38.424Z,100895.41
2019-02-18T18:18:06.870Z,100896.80
2019-02-18T18:20:35.734Z,100898.63
2019-02-18T18:23:04.252Z,100899.68
2019-02-18T18:25:32.791Z,100901.11
2019-02-18T18:28:01.252Z,100903.34
2019-02-18T18:30:29.779Z,100904.85
2019-02-18T18:32:58.232Z,100906.27
2019-02-18T18:35:26.683Z,100909.93
2019-02-18T18:37:55.399Z,100905.25
2019-02-18T18:40:23.870Z,100905.73
2019-02-18T18:42:52.286Z,100908.41
2019-02-18T18:45:21.177Z,100899.78
2019-02-18T18:47:49.619Z,100905.63
2019-02-18T18:50:20.484Z,100905.31
2019-02-18T18:52:48.969Z,100912.45
2019-02-18T18:55:17.739Z,100904.61
2019-02-18T18:57:46.294Z,100905.61
2019-02-18T19:00:21.740Z,100912.69
2019-02-18T19:02:50.186Z,100909.77
2019-02-18T19:05:18.989Z,100910.77
2019-02-18T19:07:47.438Z,100907.75
2019-02-18T19:10:16.903Z,100905.22
2019-02-18T19:12:45.396Z,100904.91
2019-02-18T19:15:15.956Z,100894.97
2019-02-18T19:17:44.473Z,100899.91
2019-02-18T19:20:13.528Z,100910.05
2019-02-18T19:22:41.962Z,100917.08
2019-02-18T19:25:11.703Z,100914.13
2019-02-18T19:27:40.129Z,100922.10
2019-02-18T19:30:17.029Z,100920.86
2019-02-18T19:32:45.997Z,100920.94
2019-02-18T19:35:14.558Z,100921.57
2019-02-18T19:37:43.057Z,100921.57
2019-02-18T19:40:13.438Z,100925.02
2019-02-18T19:42:42.016Z,100929.85
2019-02-18T19:45:16.667Z,100925.50
2019-02-18T19:47:45.097Z,100932.55
2019-02-18T19:50:13.706Z,100932.55
2019-02-18T19:52:42.383Z,100928.22
2019-02-18T19:55:11.924Z,100921.73
2019-02-18T19:57:40.458Z,100920.90
2019-02-18T20:00:12.043Z,100927.52
2019-02-18T20:02:40.849Z,100921.45
2019-02-18T20:05:10.487Z,100915.39
2019-02-18T20:07:38.961Z,100923.81
2019-02-18T20:10:10.282Z,100919.95
2019-02-18T20:12:38.933Z,100924.38
2019-02-18T20:15:12.736Z,100925.28
2019-02-18T20:17:41.194Z,100929.27
2019-02-18T20:20:14.319Z,100923.67
2019-02-18T20:22:42.965Z,100925.42
2019-02-18T20:25:11.548Z,100922.46
2019-02-18T20:27:40.002Z,100913.00
2019-02-18T20:30:13.972Z,100926.05
2019-02-18T20:32:42.488Z,100931.34
2019-02-18T20:35:11.472Z,100931.83
2019-02-18T20:37:40.052Z,100936.70
2019-02-18T20:40:09.961Z,100936.30
2019-02-18T20:42:38.950Z,100939.05
2019-02-18T20:45:12.788Z,100939.05
2019-02-18T20:47:41.407Z,100941.25
2019-02-18T20:50:11.679Z,100943.03
2019-02-18T20:52:40.218Z,100927.44
2019-02-18T20:55:15.672Z,100933.98
2019-02-18T20:57:44.173Z,100934.88
2019-02-18T21:00:20.248Z,100934.88
2019-02-18T21:02:48.980Z,100941.00
2019-02-18T21:05:17.506Z,100939.28
2019-02-18T21:07:46.042Z,100941.06
2019-02-18T21:10:17.710Z,100937.14
2019-02-18T21:12:46.138Z,100943.33
2019-02-18T21:15:14.798Z,100934.21
2019-02-18T21:17:43.319Z,100936.83
2019-02-18T21:20:13.307Z,100936.89
2019-02-18T21:22:41.805Z,100935.13
2019-02-18T21:25:10.909Z,100932.08
2019-02-18T21:27:39.424Z,100929.02
2019-02-18T21:30:10.915Z,100924.30
2019-02-18T21:32:40.013Z,100931.32
2019-02-18T21:35:08.735Z,100926.14
2019-02-18T21:37:37.254Z,100925.25
2019-02-18T21:40:10.542Z,100930.95
2019-02-18T21:42:39.062Z,100926.20
2019-02-18T21:45:13.465Z,100929.70
2019-02-18T21:47:41.961Z,100937.56
2019-02-18T21:50:11.399Z,100930.66
2019-02-18T21:52:40.433Z,100930.70
2019-02-18T21:55:10.478Z,100924.64
2019-02-18T21:57:39.000Z,100925.52
2019-02-18T22:00:17.279Z,100928.56
2019-02-18T22:02:46.056Z,100920.77
2019-02-18T22:05:14.830Z,100925.58
2019-02-18T22:07:43.333Z,100922.97
2019-02-18T22:10:11.825Z,100932.59
2019-02-18T22:12:40.298Z,100929.13
2019-02-18T22:15:11.047Z,100932.17
2019-02-18T22:17:39.573Z,100934.84
2019-02-18T22:20:10.507Z,100929.66
2019-02-18T22:22:39.153Z,100924.47
2019-02-18T22:25:11.933Z,100927.09
2019-02-18T22:27:40.464Z,100928.87
2019-02-18T22:30:11.693Z,100929.76
2019-02-18T22:32:40.168Z,100927.66
2019-02-18T22:35:09.113Z,100929.84
2019-02-18T22:37:37.931Z,100931.16
2019-02-18T22:40:08.618Z,100937.27
2019-02-18T22:42:37.072Z,100938.63
2019-02-18T22:45:07.247Z,100934.29
2019-02-18T22:47:35.951Z,100935.59
2019-02-18T22:50:04.820Z,100928.64
2019-02-18T22:52:33.738Z,100933.02
2019-02-18T22:55:02.274Z,100932.14
2019-02-18T22:57:30.915Z,100927.38
2019-02-18T22:59:59.515Z,100922.19
2019-02-18T23:02:28.075Z,100928.73
2019-02-18T23:04:56.598Z,100930.92
2019-02-18T23:07:25.046Z,100926.57
2019-02-18T23:09:54.033Z,100927.00
2019-02-18T23:12:22.724Z,100923.50
2019-02-18T23:14:51.372Z,100930.45
2019-02-18T23:17:19.954Z,100920.00
2019-02-18T23:19:48.480Z,100920.00
2019-02-18T23:22:16.969Z,100923.50
2019-02-18T23:24:45.511Z,100926.11
2019-02-18T23:27:14.015Z,100922.20
2019-02-18T23:29:42.651Z,100927.46
2019-02-18T23:32:11.151Z,100919.66
2019-02-18T23:34:39.725Z,100920.97
2019-02-18T23:37:08.317Z,100924.02
2019-02-18T23:39:36.937Z,100927.05
2019-02-18T23:42:05.512Z,100925.31
2019-02-18T23:44:34.046Z,100933.58
2019-02-18T23:47:02.703Z,100931.85
2019-02-18T23:49:31.213Z,100934.08
2019-02-18T23:51:59.738Z,100930.59
2019-02-18T23:54:28.197Z,100933.66
2019-02-18T23:56:56.707Z,100933.20
2019-02-18T23:59:25.381Z,100932.36
